Terminal Aerodrome Forecast
Issued by NWS

Home | Current Version | Previous Version | Text Only | Print | Product List | Glossary On
Versions: 1 2 3 4 5 6 7 8 9 10 11 12 13 14 15 16 17 18 19 20 21 22 23 24
323
FTUS41 KPHI 011124
TAFMIV
TAF
KMIV 011124Z 0112/0212 10004KT P6SM -RA OVC035
     FM011300 12005KT 5SM -RA SCT009 OVC025
     FM011600 13008KT 2SM RA BR OVC009
     FM011900 12005KT 1SM RA BR OVC005
     FM020100 08008KT 2SM -DZ BR OVC006=

USA.gov is the U.S. government's official web portal to all federal, state and local government web resources and services.